Latest Weather Observations for Mangrove Mountain

IDN60901

Issued at 12:41 pm EST Friday 1 July 2016 (issued every 10 minutes, with the page automatically refreshed every 10 minutes)

About weather observations | Map of Sydney area stations | Latest observations for Sydney area | Other Formats
Station Details ID: 061375 Name: MANGROVE MOUNTAIN AWS Lat: -33.29 Lon: 151.21 Height: 305.0 m
Data from the previous 72 hours. | See also: Recent months at Mangrove Mountain
Date/Time
EST
Temp
°C
App
Temp
°C
Dew
Point
°C
Rel
Hum
%
Delta-T
°C
Wind Press
QNH
hPa
Press
MSL
hPa
Rain since
9am
mm
Dir  Spd
km/h
Gust
km/h
Spd
kts
Gust
kts
01/12:30pm 13.4 8.3 2.9 49 4.7 W 19 33 10 18 - - 0.0
01/12:00pm 13.7 8.7 3.8 51 4.6 W 19 35 10 19 - - 0.0
01/11:30am 12.5 7.8 2.9 52 4.3 WNW 17 26 9 14 - - 0.0
01/11:00am 12.2 7.0 2.6 52 4.3 WNW 19 32 10 17 - - 0.0
01/10:30am 11.8 7.4 2.8 54 4.0 WNW 15 26 8 14 - - 0.0
01/10:00am 11.6 7.2 2.9 55 3.9 WNW 15 22 8 12 - - 0.0
01/09:30am 9.8 5.8 2.6 61 3.1 WNW 13 22 7 12 - - 0.0
01/09:00am 9.9 5.5 2.7 61 3.1 WNW 15 28 8 15 - - 0.0
01/08:30am 9.0 5.5 3.6 69 2.4 WNW 11 20 6 11 - - 0.0
01/08:00am 7.5 4.8 3.6 76 1.7 WNW 7 13 4 7 - - 0.0
01/07:30am 7.2 4.2 4.2 81 1.3 W 9 15 5 8 - - 0.0
01/07:00am 6.8 4.1 3.9 82 1.3 WNW 7 11 4 6 - - 0.0
01/06:30am 6.9 4.3 4.0 82 1.3 WNW 7 13 4 7 - - 0.0
01/06:00am 7.4 4.8 4.4 81 1.3 WNW 7 15 4 8 - - 0.0
01/05:30am 7.5 4.9 4.3 80 1.4 NW 7 11 4 6 - - 0.0
01/05:00am 7.5 5.0 3.9 78 1.6 NW 6 13 3 7 - - 0.0
01/04:30am 8.2 5.2 4.2 76 1.8 WNW 9 13 5 7 - - 0.0
01/04:00am 8.4 5.1 4.4 76 1.8 NW 11 19 6 10 - - 0.0
01/03:30am 8.2 5.2 4.2 76 1.8 NW 9 20 5 11 - - 0.0
01/03:00am 8.5 4.8 4.3 75 1.9 NW 13 24 7 13 - - 0.0
01/02:30am 8.3 5.3 4.1 75 1.9 NW 9 15 5 8 - - 0.0
01/02:00am 8.8 5.4 4.2 73 2.1 NW 11 22 6 12 - - 0.0
01/01:30am 8.7 4.1 3.9 72 2.1 NW 17 32 9 17 - - 0.0
01/01:00am 8.6 4.8 3.8 72 2.1 WNW 13 28 7 15 - - 0.0
01/12:30am 8.4 4.9 3.5 71 2.1 NW 11 19 6 10 - - 0.0
01/12:00am 8.3 5.5 3.2 70 2.2 NNW 7 20 4 11 - - 0.0
 
Date/Time
EST
Temp
°C
App
Temp
°C
Dew
Point
°C
Rel
Hum
%
Delta-T
°C
Wind Press
QNH
hPa
Press
MSL
hPa
Rain since
9am
mm
Dir  Spd
km/h
Gust
km/h
Spd
kts
Gust
kts
30/11:30pm 8.6 5.4 2.8 67 2.5 NW 9 15 5 8 - - 0.0
30/11:00pm 8.9 4.9 2.7 65 2.7 NW 13 20 7 11 - - 0.0
30/10:30pm 9.2 5.5 2.5 63 2.9 NW 11 22 6 12 - - 0.0
30/10:00pm 9.3 5.6 2.6 63 2.9 NW 11 20 6 11 - - 0.0
30/09:30pm 9.5 5.8 2.6 62 3.0 NW 11 17 6 9 - - 0.0
30/09:00pm 9.6 5.9 2.5 61 3.1 NW 11 20 6 11 - - 0.0
30/08:30pm 10.0 6.3 2.6 60 3.2 NW 11 22 6 12 - - 0.0
30/08:00pm 10.2 6.5 2.6 59 3.3 NW 11 22 6 12 - - 0.0
30/07:30pm 11.0 7.7 2.6 56 3.7 NW 9 20 5 11 - - 0.0
30/07:00pm 11.2 7.9 2.2 54 3.9 NNW 9 17 5 9 - - 0.0
30/06:30pm 11.5 8.1 2.0 52 4.1 NNW 9 20 5 11 - - 0.0
30/06:00pm 12.0 7.0 1.6 49 4.5 NW 17 37 9 20 - - 0.0
30/05:30pm 12.1 7.1 1.4 48 4.6 NW 17 32 9 17 - - 0.0
30/05:00pm 12.1 8.1 0.8 46 4.8 NW 11 22 6 12 - - 0.0
30/04:30pm 12.3 8.0 0.7 45 4.9 NW 13 24 7 13 - - 0.0
30/04:00pm 12.1 7.8 0.8 46 4.8 NW 13 26 7 14 - - 0.0
30/03:30pm 12.2 7.8 0.6 45 4.9 NW 13 22 7 12 - - 0.0
30/03:00pm 12.3 7.9 0.4 44 5.0 NW 13 22 7 12 - - 0.0
30/02:30pm 12.9 8.1 0.3 42 5.3 NW 15 28 8 15 - - 0.0
30/02:00pm 13.5 8.7 0.2 40 5.7 NW 15 32 8 17 - - 0.0
30/01:30pm 15.2 10.6 1.4 39 6.1 NNW 15 22 8 12 - - 0.0
30/01:00pm 13.6 9.2 0.6 41 5.6 NW 13 22 7 12 - - 0.0
30/12:30pm 13.3 10.4 2.8 49 4.7 WNW 7 17 4 9 - - 0.0
30/12:00pm 13.5 9.4 2.1 46 5.1 NW 13 22 7 12 - - 0.0
30/11:30am 13.7 9.8 3.5 50 4.7 NNW 13 22 7 12 - - 0.0
30/11:00am 12.7 9.2 3.6 54 4.1 NNW 11 24 6 13 - - 0.0
30/10:30am 12.4 8.5 3.4 54 4.1 NNW 13 24 7 13 - - 0.0
30/10:00am 11.3 7.8 3.3 58 3.6 NNW 11 24 6 13 - - 0.0
30/09:30am 10.3 7.2 3.8 64 2.9 NNW 9 17 5 9 - - 0.0
30/09:00am 8.7 5.6 3.7 71 2.2 NNW 9 15 5 8 - - 0.0
30/08:30am 7.0 4.4 3.4 78 1.6 NW 6 13 3 7 - - 0.0
30/08:00am 5.7 3.1 3.4 85 1.0 NW 6 11 3 6 - - 0.0
30/07:30am 3.6 0.8 2.0 89 0.6 NW 6 9 3 5 - - 0.0
30/07:00am 3.7 1.0 2.4 91 0.5 NNW 6 9 3 5 - - 0.0
30/06:30am 2.9 0.4 1.7 92 0.5 NW 4 7 2 4 - - 0.0
30/06:00am 2.6 0.0 1.1 90 0.6 NNW 4 6 2 3 - - 0.0
30/05:30am 3.2 0.7 1.7 90 0.6 NW 4 6 2 3 - - 0.0
30/05:00am 2.8 0.2 1.2 89 0.6 NNW 4 6 2 3 - - 0.0
30/04:30am 3.2 0.6 0.9 85 0.9 NNW 4 6 2 3 - - 0.0
30/04:00am 3.8 1.2 1.0 82 1.1 NNW 4 7 2 4 - - 0.0
30/03:30am 5.2 2.8 2.0 80 1.3 NNW 4 6 2 3 - - 0.0
30/03:00am 4.2 1.6 1.2 81 1.2 NNW 4 4 2 2 - - 0.0
30/02:30am 4.6 2.0 1.1 78 1.4 NNW 4 6 2 3 - - 0.0
30/02:00am 5.6 3.1 1.3 74 1.7 N 4 6 2 3 - - 0.0
30/01:30am 8.4 5.8 3.1 69 2.3 N 6 9 3 5 - - 0.0
30/01:00am 5.8 3.9 2.8 81 1.3 N 2 4 1 2 - - 0.0
30/12:30am 5.3 2.8 3.6 89 0.7 N 6 7 3 4 - - 0.0
30/12:00am 5.0 2.8 3.5 90 0.6 NNW 4 6 2 3 - - 0.0
 
Date/Time
EST
Temp
°C
App
Temp
°C
Dew
Point
°C
Rel
Hum
%
Delta-T
°C
Wind Press
QNH
hPa
Press
MSL
hPa
Rain since
9am
mm
Dir  Spd
km/h
Gust
km/h
Spd
kts
Gust
kts
29/11:30pm 5.0 3.1 2.9 86 0.9 NNW 2 4 1 2 - - 0.0
29/11:00pm 6.1 3.7 2.2 76 1.6 N 4 6 2 3 - - 0.0
29/10:30pm 8.1 5.7 4.1 76 1.8 N 6 7 3 4 - - 0.0
29/10:00pm 7.3 5.1 3.2 75 1.8 N 4 6 2 3 - - 0.0
29/09:30pm 6.5 4.4 3.7 82 1.2 NNE 4 6 2 3 - - 0.0
29/09:00pm 7.8 5.4 4.4 79 1.5 NE 6 9 3 5 - - 0.0
29/08:30pm 7.5 5.2 4.8 83 1.2 NE 6 7 3 4 - - 0.0
29/08:00pm 7.2 5.4 5.3 88 0.9 NE 4 7 2 4 - - 0.0
29/07:30pm 5.6 3.8 3.4 86 0.9 NE 2 4 1 2 - - 0.0
29/07:00pm 6.5 5.1 3.3 80 1.4 CALM 0 2 0 1 - - 0.0
29/06:30pm 7.0 5.7 4.0 81 1.3 CALM 0 2 0 1 - - 0.0
29/06:00pm 7.0 5.7 4.0 81 1.3 CALM 0 0 0 0 - - 0.0
29/05:30pm 6.7 5.2 3.1 78 1.5 CALM 0 0 0 0 - - 0.0
29/05:00pm 8.5 7.1 3.4 70 2.2 CALM 0 0 0 0 - - 0.0
29/04:30pm 12.3 11.0 4.3 58 3.7 CALM 0 0 0 0 - - 0.0
29/04:00pm 15.0 13.7 4.1 48 5.1 CALM 0 0 0 0 - - 0.0
29/03:30pm 16.1 14.6 3.2 42 6.0 CALM 0 0 0 0 - - 0.0
29/03:00pm 16.1 14.7 3.5 43 5.9 CALM 0 0 0 0 - - 0.0
29/02:30pm 15.9 13.9 2.3 40 6.2 WNW 2 9 1 5 - - 0.0
29/02:00pm 15.9 14.1 3.7 44 5.7 SW 2 6 1 3 - - 0.0
29/01:30pm 15.8 14.0 3.6 44 5.7 SSW 2 6 1 3 - - 0.0
29/01:00pm 15.9 13.7 3.4 43 5.8 W 4 13 2 7 - - 0.0
29/12:30pm 14.6 12.6 4.3 50 4.8 WSW 4 7 2 4 - - 0.0
29/12:00pm 13.8 11.7 4.1 52 4.5 W 4 7 2 4 - - 0.0
29/11:30am 13.1 10.6 3.5 52 4.4 W 6 9 3 5 - - 0.0
29/11:00am 12.4 9.9 3.9 56 3.9 NW 6 9 3 5 - - 0.0
29/10:30am 10.8 8.2 3.1 59 3.4 NW 6 9 3 5 - - 0.0
29/10:00am 9.8 6.6 3.1 63 2.9 NW 9 13 5 7 - - 0.0
29/09:30am 8.7 6.0 3.5 70 2.3 NW 7 11 4 6 - - 0.0
29/09:00am 6.8 4.0 3.2 78 1.5 NW 7 9 4 5 - - 0.2
29/08:30am 5.7 2.9 3.2 84 1.1 NW 7 11 4 6 - - 0.2
29/08:00am 3.6 0.3 2.7 94 0.4 NW 9 11 5 6 - - 0.0
29/07:30am 1.9 -1.2 1.2 95 0.3 NW 7 9 4 5 - - 0.0
29/07:00am 1.8 -1.3 1.1 95 0.3 NW 7 9 4 5 - - 0.0
29/06:30am 1.8 -1.3 1.2 96 0.2 NW 7 9 4 5 - - 0.0
29/06:00am 1.6 -1.6 0.9 95 0.3 NW 7 9 4 5 - - 0.0
29/05:30am 1.9 -1.0 1.3 96 0.2 NW 6 7 3 4 - - 0.0
29/05:00am 2.2 -0.9 1.6 96 0.2 NW 7 9 4 5 - - 0.0
29/04:30am 1.9 -1.2 1.3 96 0.2 NW 7 9 4 5 - - 0.0
29/04:00am 1.7 -1.4 1.3 97 0.2 NW 7 9 4 5 - - 0.0
29/03:30am 1.6 -1.3 1.2 97 0.2 NW 6 7 3 4 - - 0.0
29/03:00am 1.8 -0.7 1.4 97 0.2 NW 4 6 2 3 - - 0.0
29/02:30am 1.8 -1.1 1.4 97 0.2 NW 6 6 3 3 - - 0.0
29/02:00am 2.0 -0.9 1.6 97 0.2 NW 6 7 3 4 - - 0.0
29/01:30am 2.0 -0.9 1.6 97 0.2 NW 6 6 3 3 - - 0.0
29/01:00am 2.1 -0.4 1.7 97 0.2 NW 4 7 2 4 - - 0.0
29/12:30am 2.3 -0.1 1.9 97 0.2 NNW 4 4 2 2 - - 0.0
29/12:00am 2.4 -0.1 1.8 96 0.2 NNW 4 6 2 3 - - 0.0
 
Date/Time
EST
Temp
°C
App
Temp
°C
Dew
Point
°C
Rel
Hum
%
Delta-T
°C
Wind Press
QNH
hPa
Press
MSL
hPa
Rain since
9am
mm
Dir  Spd
km/h
Gust
km/h
Spd
kts
Gust
kts
28/11:30pm 2.5 0.0 1.6 94 0.4 NNW 4 6 2 3 - - 0.0
28/11:00pm 2.7 0.6 1.7 93 0.4 NNW 2 4 1 2 - - 0.0
28/10:30pm 3.1 0.6 1.6 90 0.6 NW 4 6 2 3 - - 0.0
28/10:00pm 5.1 2.5 3.1 87 0.8 WNW 6 7 3 4 - - 0.0
28/09:30pm 5.9 3.4 3.7 86 0.9 WNW 6 9 3 5 - - 0.0
28/09:00pm 5.6 3.1 3.9 89 0.7 WNW 6 9 3 5 - - 0.0
28/08:30pm 4.2 1.7 1.7 84 1.0 WNW 4 6 2 3 - - 0.0
28/08:00pm 6.3 3.9 2.2 75 1.7 W 4 6 2 3 - - 0.0
28/07:30pm 7.6 5.4 3.1 73 1.9 WSW 4 7 2 4 - - 0.0
28/07:00pm 7.0 4.8 3.4 78 1.6 SW 4 7 2 4 - - 0.0
28/06:30pm 7.7 5.9 3.7 76 1.7 SSW 2 4 1 2 - - 0.0
28/06:00pm 7.6 5.5 4.0 78 1.6 SW 4 6 2 3 - - 0.0
28/05:30pm 7.0 5.6 3.3 77 1.6 CALM 0 0 0 0 - - 0.0
28/05:00pm 8.8 7.0 3.2 68 2.4 SSW 2 4 1 2 - - 0.0
28/04:30pm 11.5 9.3 3.5 58 3.6 SW 4 7 2 4 - - 0.0
28/04:00pm 12.8 10.6 3.5 53 4.2 SW 4 6 2 3 - - 0.0
28/03:30pm 13.3 10.4 2.8 49 4.7 SSW 7 13 4 7 - - 0.0
28/03:00pm 14.4 11.8 4.1 50 4.8 WSW 7 17 4 9 - - 0.0
28/02:30pm 14.4 11.5 4.4 51 4.7 WSW 9 17 5 9 - - 0.0
28/02:00pm 14.6 11.6 4.3 50 4.8 W 9 17 5 9 - - 0.0
28/01:30pm 14.2 11.7 4.8 53 4.4 WSW 7 19 4 10 - - 0.0
28/01:00pm 13.3 9.4 3.4 51 4.5 WSW 13 22 7 12 - - 0.0

Latest Capital City Observations: Canberra | Sydney | Melbourne | Brisbane | Adelaide | Perth | Hobart | Darwin

Other Formats:

Comma delimited format used in spreadsheet applications
http://www.bom.gov.au/fwo/IDN60901/IDN60901.95774.axf

JavaScript Object Notation format (JSON) in row-major order
http://www.bom.gov.au/fwo/IDN60901/IDN60901.95774.json